sensor_id;sensor_type;location;lat;lon;timestamp;P1;durP1;ratioP1;P2;durP2;ratioP2
70049;SDS011;57391;51.306;22.680;2023-04-25T00:00:54;12.90;;;6.60;;
70049;SDS011;57391;51.306;22.680;2023-04-25T00:03:21;11.00;;;7.00;;
70049;SDS011;57391;51.306;22.680;2023-04-25T00:05:48;11.10;;;6.80;;
70049;SDS011;57391;51.306;22.680;2023-04-25T00:08:16;11.10;;;6.50;;
70049;SDS011;57391;51.306;22.680;2023-04-25T00:10:44;10.00;;;6.50;;
70049;SDS011;57391;51.306;22.680;2023-04-25T00:13:11;11.20;;;6.50;;
70049;SDS011;57391;51.306;22.680;2023-04-25T00:15:38;9.40;;;6.40;;
70049;SDS011;57391;51.306;22.680;2023-04-25T00:18:05;11.20;;;7.00;;
70049;SDS011;57391;51.306;22.680;2023-04-25T00:20:32;12.40;;;7.30;;
70049;SDS011;57391;51.306;22.680;2023-04-25T00:22:59;9.70;;;6.80;;
70049;SDS011;57391;51.306;22.680;2023-04-25T00:25:27;10.80;;;6.90;;
70049;SDS011;57391;51.306;22.680;2023-04-25T00:27:55;11.00;;;7.20;;
70049;SDS011;57391;51.306;22.680;2023-04-25T00:30:22;11.50;;;6.80;;
70049;SDS011;57391;51.306;22.680;2023-04-25T00:32:49;11.70;;;7.30;;
70049;SDS011;57391;51.306;22.680;2023-04-25T00:35:17;11.00;;;7.00;;
70049;SDS011;57391;51.306;22.680;2023-04-25T00:37:44;13.00;;;7.10;;
70049;SDS011;57391;51.306;22.680;2023-04-25T00:40:12;10.60;;;7.20;;
70049;SDS011;57391;51.306;22.680;2023-04-25T00:42:39;10.20;;;6.80;;
70049;SDS011;57391;51.306;22.680;2023-04-25T00:45:09;13.60;;;7.60;;
70049;SDS011;57391;51.306;22.680;2023-04-25T00:47:41;9.70;;;6.70;;
70049;SDS011;57391;51.306;22.680;2023-04-25T00:50:09;10.50;;;6.60;;
70049;SDS011;57391;51.306;22.680;2023-04-25T00:52:40;9.60;;;6.30;;
70049;SDS011;57391;51.306;22.680;2023-04-25T00:55:11;10.90;;;6.60;;
70049;SDS011;57391;51.306;22.680;2023-04-25T00:57:40;9.60;;;7.20;;
70049;SDS011;57391;51.306;22.680;2023-04-25T01:00:08;11.10;;;7.10;;
70049;SDS011;57391;51.306;22.680;2023-04-25T01:02:37;11.50;;;7.20;;
70049;SDS011;57391;51.306;22.680;2023-04-25T01:05:04;12.10;;;7.30;;
70049;SDS011;57391;51.306;22.680;2023-04-25T01:07:32;11.20;;;7.50;;
70049;SDS011;57391;51.306;22.680;2023-04-25T01:09:59;11.40;;;7.10;;
70049;SDS011;57391;51.306;22.680;2023-04-25T01:12:26;12.40;;;7.40;;
70049;SDS011;57391;51.306;22.680;2023-04-25T01:14:53;12.00;;;7.50;;
70049;SDS011;57391;51.306;22.680;2023-04-25T01:17:20;9.40;;;6.60;;
70049;SDS011;57391;51.306;22.680;2023-04-25T01:19:48;10.10;;;7.10;;
70049;SDS011;57391;51.306;22.680;2023-04-25T01:22:16;10.60;;;7.40;;
70049;SDS011;57391;51.306;22.680;2023-04-25T01:24:44;13.00;;;7.90;;
70049;SDS011;57391;51.306;22.680;2023-04-25T01:27:12;10.90;;;7.60;;
70049;SDS011;57391;51.306;22.680;2023-04-25T01:29:39;10.20;;;7.40;;
70049;SDS011;57391;51.306;22.680;2023-04-25T01:32:07;12.10;;;8.60;;
70049;SDS011;57391;51.306;22.680;2023-04-25T01:34:35;12.40;;;8.30;;
70049;SDS011;57391;51.306;22.680;2023-04-25T01:37:02;10.90;;;7.90;;
70049;SDS011;57391;51.306;22.680;2023-04-25T01:39:29;10.70;;;7.50;;
70049;SDS011;57391;51.306;22.680;2023-04-25T01:41:59;10.90;;;7.90;;
70049;SDS011;57391;51.306;22.680;2023-04-25T01:44:27;10.90;;;7.50;;
70049;SDS011;57391;51.306;22.680;2023-04-25T01:46:54;11.90;;;7.90;;
70049;SDS011;57391;51.306;22.680;2023-04-25T01:49:21;10.80;;;7.40;;
70049;SDS011;57391;51.306;22.680;2023-04-25T01:51:49;10.50;;;7.80;;
70049;SDS011;57391;51.306;22.680;2023-04-25T01:54:16;11.70;;;7.70;;
70049;SDS011;57391;51.306;22.680;2023-04-25T01:56:50;13.10;;;7.60;;
70049;SDS011;57391;51.306;22.680;2023-04-25T01:59:18;10.90;;;7.60;;
70049;SDS011;57391;51.306;22.680;2023-04-25T02:02:00;11.20;;;7.60;;
70049;SDS011;57391;51.306;22.680;2023-04-25T02:04:31;14.30;;;8.00;;
70049;SDS011;57391;51.306;22.680;2023-04-25T02:06:59;11.80;;;8.00;;
70049;SDS011;57391;51.306;22.680;2023-04-25T02:09:34;11.10;;;7.80;;
70049;SDS011;57391;51.306;22.680;2023-04-25T02:12:04;12.80;;;8.40;;
70049;SDS011;57391;51.306;22.680;2023-04-25T02:14:42;12.30;;;8.00;;
70049;SDS011;57391;51.306;22.680;2023-04-25T02:17:27;13.50;;;8.50;;
70049;SDS011;57391;51.306;22.680;2023-04-25T02:19:54;12.30;;;8.40;;
70049;SDS011;57391;51.306;22.680;2023-04-25T02:22:21;14.40;;;8.20;;
70049;SDS011;57391;51.306;22.680;2023-04-25T02:24:48;12.90;;;8.50;;
70049;SDS011;57391;51.306;22.680;2023-04-25T02:27:15;12.80;;;8.40;;
70049;SDS011;57391;51.306;22.680;2023-04-25T02:29:43;12.90;;;9.10;;
70049;SDS011;57391;51.306;22.680;2023-04-25T02:32:10;12.50;;;9.10;;
70049;SDS011;57391;51.306;22.680;2023-04-25T02:34:37;13.80;;;9.20;;
70049;SDS011;57391;51.306;22.680;2023-04-25T02:37:04;13.90;;;8.70;;
70049;SDS011;57391;51.306;22.680;2023-04-25T02:39:31;12.30;;;8.80;;
70049;SDS011;57391;51.306;22.680;2023-04-25T02:41:58;13.90;;;9.10;;
70049;SDS011;57391;51.306;22.680;2023-04-25T02:44:25;12.50;;;8.70;;
70049;SDS011;57391;51.306;22.680;2023-04-25T02:46:52;13.40;;;9.10;;
70049;SDS011;57391;51.306;22.680;2023-04-25T02:49:20;13.40;;;9.40;;
70049;SDS011;57391;51.306;22.680;2023-04-25T02:51:47;15.00;;;9.90;;
70049;SDS011;57391;51.306;22.680;2023-04-25T02:54:14;14.20;;;9.80;;
70049;SDS011;57391;51.306;22.680;2023-04-25T02:56:44;14.20;;;9.30;;
70049;SDS011;57391;51.306;22.680;2023-04-25T02:59:14;15.30;;;10.20;;
70049;SDS011;57391;51.306;22.680;2023-04-25T03:01:41;14.40;;;9.70;;
70049;SDS011;57391;51.306;22.680;2023-04-25T03:04:08;16.10;;;10.40;;
70049;SDS011;57391;51.306;22.680;2023-04-25T03:06:36;16.80;;;9.70;;
70049;SDS011;57391;51.306;22.680;2023-04-25T03:09:03;14.90;;;10.00;;
70049;SDS011;57391;51.306;22.680;2023-04-25T03:11:31;16.40;;;10.60;;
70049;SDS011;57391;51.306;22.680;2023-04-25T03:13:58;16.10;;;10.20;;
70049;SDS011;57391;51.306;22.680;2023-04-25T03:16:26;16.10;;;10.20;;
70049;SDS011;57391;51.306;22.680;2023-04-25T03:18:53;15.30;;;10.60;;
70049;SDS011;57391;51.306;22.680;2023-04-25T03:21:20;15.10;;;10.50;;
70049;SDS011;57391;51.306;22.680;2023-04-25T03:23:47;13.90;;;10.40;;
70049;SDS011;57391;51.306;22.680;2023-04-25T03:26:14;15.30;;;10.20;;
70049;SDS011;57391;51.306;22.680;2023-04-25T03:28:41;17.00;;;11.20;;
70049;SDS011;57391;51.306;22.680;2023-04-25T03:31:09;16.30;;;11.20;;
70049;SDS011;57391;51.306;22.680;2023-04-25T03:33:36;17.60;;;11.80;;
70049;SDS011;57391;51.306;22.680;2023-04-25T03:36:03;18.10;;;11.00;;
70049;SDS011;57391;51.306;22.680;2023-04-25T03:38:30;19.50;;;11.90;;
70049;SDS011;57391;51.306;22.680;2023-04-25T03:40:58;17.10;;;11.40;;
70049;SDS011;57391;51.306;22.680;2023-04-25T03:43:44;18.00;;;10.90;;
70049;SDS011;57391;51.306;22.680;2023-04-25T03:46:13;16.20;;;11.50;;
70049;SDS011;57391;51.306;22.680;2023-04-25T03:48:41;14.10;;;11.30;;
70049;SDS011;57391;51.306;22.680;2023-04-25T03:51:08;15.70;;;11.80;;
70049;SDS011;57391;51.306;22.680;2023-04-25T03:53:39;15.80;;;11.60;;
70049;SDS011;57391;51.306;22.680;2023-04-25T03:56:15;17.20;;;11.90;;
70049;SDS011;57391;51.306;22.680;2023-04-25T03:58:44;21.40;;;12.20;;
70049;SDS011;57391;51.306;22.680;2023-04-25T04:01:12;16.80;;;11.30;;
70049;SDS011;57391;51.306;22.680;2023-04-25T04:03:39;14.50;;;10.40;;
70049;SDS011;57391;51.306;22.680;2023-04-25T04:06:07;13.30;;;9.20;;
70049;SDS011;57391;51.306;22.680;2023-04-25T04:08:41;13.10;;;9.30;;
70049;SDS011;57391;51.306;22.680;2023-04-25T04:11:10;14.40;;;9.10;;
70049;SDS011;57391;51.306;22.680;2023-04-25T04:13:37;14.50;;;9.80;;
70049;SDS011;57391;51.306;22.680;2023-04-25T04:16:05;16.10;;;10.40;;
70049;SDS011;57391;51.306;22.680;2023-04-25T04:18:32;16.10;;;9.60;;
70049;SDS011;57391;51.306;22.680;2023-04-25T04:20:59;13.60;;;9.60;;
70049;SDS011;57391;51.306;22.680;2023-04-25T04:23:29;11.90;;;9.10;;
70049;SDS011;57391;51.306;22.680;2023-04-25T04:25:57;13.60;;;10.30;;
70049;SDS011;57391;51.306;22.680;2023-04-25T04:28:37;14.30;;;9.80;;
70049;SDS011;57391;51.306;22.680;2023-04-25T04:31:17;14.30;;;10.10;;
70049;SDS011;57391;51.306;22.680;2023-04-25T04:33:47;16.20;;;10.40;;
70049;SDS011;57391;51.306;22.680;2023-04-25T04:36:17;16.80;;;10.60;;
70049;SDS011;57391;51.306;22.680;2023-04-25T04:38:52;14.90;;;9.60;;
70049;SDS011;57391;51.306;22.680;2023-04-25T04:41:31;15.80;;;10.40;;
70049;SDS011;57391;51.306;22.680;2023-04-25T04:44:11;14.70;;;9.20;;
70049;SDS011;57391;51.306;22.680;2023-04-25T04:47:05;14.50;;;9.10;;
70049;SDS011;57391;51.306;22.680;2023-04-25T04:49:41;14.30;;;10.00;;
70049;SDS011;57391;51.306;22.680;2023-04-25T04:52:08;14.10;;;9.50;;
70049;SDS011;57391;51.306;22.680;2023-04-25T04:54:53;14.20;;;9.40;;
70049;SDS011;57391;51.306;22.680;2023-04-25T04:57:47;14.60;;;9.10;;
70049;SDS011;57391;51.306;22.680;2023-04-25T05:00:33;15.10;;;9.50;;
70049;SDS011;57391;51.306;22.680;2023-04-25T05:03:29;14.30;;;9.00;;
70049;SDS011;57391;51.306;22.680;2023-04-25T05:06:22;13.10;;;9.00;;
70049;SDS011;57391;51.306;22.680;2023-04-25T05:09:18;13.70;;;8.70;;
70049;SDS011;57391;51.306;22.680;2023-04-25T05:12:14;14.30;;;8.90;;
70049;SDS011;57391;51.306;22.680;2023-04-25T05:15:04;13.50;;;9.20;;
70049;SDS011;57391;51.306;22.680;2023-04-25T05:17:50;14.20;;;10.10;;
70049;SDS011;57391;51.306;22.680;2023-04-25T05:20:37;14.80;;;9.40;;
70049;SDS011;57391;51.306;22.680;2023-04-25T05:23:05;15.90;;;10.80;;
70049;SDS011;57391;51.306;22.680;2023-04-25T05:25:56;15.20;;;10.70;;
70049;SDS011;57391;51.306;22.680;2023-04-25T05:28:36;17.10;;;10.40;;
70049;SDS011;57391;51.306;22.680;2023-04-25T05:31:32;17.10;;;9.40;;
70049;SDS011;57391;51.306;22.680;2023-04-25T05:34:04;16.90;;;9.40;;
70049;SDS011;57391;51.306;22.680;2023-04-25T05:36:49;13.80;;;9.30;;
70049;SDS011;57391;51.306;22.680;2023-04-25T05:39:17;12.90;;;8.80;;
70049;SDS011;57391;51.306;22.680;2023-04-25T05:42:07;14.30;;;9.10;;
70049;SDS011;57391;51.306;22.680;2023-04-25T05:44:52;14.60;;;9.30;;
70049;SDS011;57391;51.306;22.680;2023-04-25T05:47:26;13.80;;;9.00;;
70049;SDS011;57391;51.306;22.680;2023-04-25T05:50:16;13.30;;;9.60;;
70049;SDS011;57391;51.306;22.680;2023-04-25T05:52:54;14.00;;;9.70;;
70049;SDS011;57391;51.306;22.680;2023-04-25T05:55:28;15.30;;;9.70;;
70049;SDS011;57391;51.306;22.680;2023-04-25T05:57:57;15.10;;;9.60;;
70049;SDS011;57391;51.306;22.680;2023-04-25T06:00:25;13.50;;;9.70;;
70049;SDS011;57391;51.306;22.680;2023-04-25T06:02:53;15.10;;;9.30;;
70049;SDS011;57391;51.306;22.680;2023-04-25T06:05:20;16.30;;;9.50;;
70049;SDS011;57391;51.306;22.680;2023-04-25T06:07:47;14.70;;;9.80;;
70049;SDS011;57391;51.306;22.680;2023-04-25T06:10:14;12.60;;;9.80;;
70049;SDS011;57391;51.306;22.680;2023-04-25T06:12:42;14.70;;;9.30;;
70049;SDS011;57391;51.306;22.680;2023-04-25T06:15:10;13.90;;;9.00;;
70049;SDS011;57391;51.306;22.680;2023-04-25T06:17:38;14.90;;;9.10;;
70049;SDS011;57391;51.306;22.680;2023-04-25T06:20:06;12.60;;;8.60;;
70049;SDS011;57391;51.306;22.680;2023-04-25T06:22:34;14.10;;;8.40;;
70049;SDS011;57391;51.306;22.680;2023-04-25T06:25:01;12.30;;;7.70;;
70049;SDS011;57391;51.306;22.680;2023-04-25T06:27:33;13.00;;;8.20;;
70049;SDS011;57391;51.306;22.680;2023-04-25T06:30:01;13.60;;;7.60;;
70049;SDS011;57391;51.306;22.680;2023-04-25T06:32:29;13.50;;;7.40;;
70049;SDS011;57391;51.306;22.680;2023-04-25T06:34:58;13.10;;;7.30;;
70049;SDS011;57391;51.306;22.680;2023-04-25T06:37:26;15.40;;;7.70;;
70049;SDS011;57391;51.306;22.680;2023-04-25T06:39:53;12.80;;;8.50;;
70049;SDS011;57391;51.306;22.680;2023-04-25T06:42:20;15.90;;;9.00;;
70049;SDS011;57391;51.306;22.680;2023-04-25T06:44:53;15.30;;;8.60;;
70049;SDS011;57391;51.306;22.680;2023-04-25T06:47:20;22.70;;;14.60;;
70049;SDS011;57391;51.306;22.680;2023-04-25T06:49:49;21.60;;;14.00;;
70049;SDS011;57391;51.306;22.680;2023-04-25T06:52:17;18.80;;;11.60;;
70049;SDS011;57391;51.306;22.680;2023-04-25T06:54:45;20.10;;;12.00;;
70049;SDS011;57391;51.306;22.680;2023-04-25T06:57:35;25.00;;;14.60;;
70049;SDS011;57391;51.306;22.680;2023-04-25T07:00:18;22.60;;;13.00;;
70049;SDS011;57391;51.306;22.680;2023-04-25T07:02:46;16.30;;;10.20;;
70049;SDS011;57391;51.306;22.680;2023-04-25T07:05:13;15.40;;;10.00;;
70049;SDS011;57391;51.306;22.680;2023-04-25T07:07:40;11.80;;;8.40;;
70049;SDS011;57391;51.306;22.680;2023-04-25T07:10:08;12.00;;;8.40;;
70049;SDS011;57391;51.306;22.680;2023-04-25T07:12:35;12.70;;;8.30;;
70049;SDS011;57391;51.306;22.680;2023-04-25T07:15:03;14.80;;;8.40;;
70049;SDS011;57391;51.306;22.680;2023-04-25T07:17:32;12.60;;;7.90;;
70049;SDS011;57391;51.306;22.680;2023-04-25T07:20:00;11.70;;;6.50;;
70049;SDS011;57391;51.306;22.680;2023-04-25T07:22:28;10.90;;;7.40;;
70049;SDS011;57391;51.306;22.680;2023-04-25T07:24:56;10.80;;;7.30;;
70049;SDS011;57391;51.306;22.680;2023-04-25T07:27:24;10.30;;;6.90;;
70049;SDS011;57391;51.306;22.680;2023-04-25T07:30:00;8.90;;;5.70;;
70049;SDS011;57391;51.306;22.680;2023-04-25T07:32:27;9.80;;;6.20;;
70049;SDS011;57391;51.306;22.680;2023-04-25T07:34:54;10.30;;;5.90;;
70049;SDS011;57391;51.306;22.680;2023-04-25T07:37:23;8.30;;;6.00;;
70049;SDS011;57391;51.306;22.680;2023-04-25T07:40:16;9.70;;;6.30;;
70049;SDS011;57391;51.306;22.680;2023-04-25T07:42:50;9.80;;;6.30;;
70049;SDS011;57391;51.306;22.680;2023-04-25T07:45:21;7.80;;;5.60;;
70049;SDS011;57391;51.306;22.680;2023-04-25T07:47:49;7.90;;;5.40;;
70049;SDS011;57391;51.306;22.680;2023-04-25T07:50:17;8.40;;;5.50;;
70049;SDS011;57391;51.306;22.680;2023-04-25T07:52:44;7.40;;;5.30;;
70049;SDS011;57391;51.306;22.680;2023-04-25T07:55:28;8.50;;;5.90;;
70049;SDS011;57391;51.306;22.680;2023-04-25T07:58:02;8.60;;;5.30;;
70049;SDS011;57391;51.306;22.680;2023-04-25T08:00:30;9.70;;;5.60;;
70049;SDS011;57391;51.306;22.680;2023-04-25T08:03:12;9.20;;;6.10;;
70049;SDS011;57391;51.306;22.680;2023-04-25T08:05:39;8.90;;;6.30;;
70049;SDS011;57391;51.306;22.680;2023-04-25T08:08:06;8.90;;;6.10;;
70049;SDS011;57391;51.306;22.680;2023-04-25T08:10:34;8.20;;;5.90;;
70049;SDS011;57391;51.306;22.680;2023-04-25T08:13:01;8.90;;;6.60;;
70049;SDS011;57391;51.306;22.680;2023-04-25T08:15:30;9.30;;;6.20;;
70049;SDS011;57391;51.306;22.680;2023-04-25T08:17:57;8.30;;;5.40;;
70049;SDS011;57391;51.306;22.680;2023-04-25T08:20:24;9.80;;;5.00;;
70049;SDS011;57391;51.306;22.680;2023-04-25T08:22:52;7.80;;;4.90;;
70049;SDS011;57391;51.306;22.680;2023-04-25T08:25:31;6.90;;;4.90;;
70049;SDS011;57391;51.306;22.680;2023-04-25T08:27:58;11.50;;;5.20;;
70049;SDS011;57391;51.306;22.680;2023-04-25T08:30:26;8.60;;;5.00;;
70049;SDS011;57391;51.306;22.680;2023-04-25T08:32:53;7.90;;;5.00;;
70049;SDS011;57391;51.306;22.680;2023-04-25T08:35:42;8.70;;;5.20;;
70049;SDS011;57391;51.306;22.680;2023-04-25T08:38:11;8.00;;;5.20;;
70049;SDS011;57391;51.306;22.680;2023-04-25T08:40:40;7.10;;;5.40;;
70049;SDS011;57391;51.306;22.680;2023-04-25T08:43:13;7.00;;;4.70;;
70049;SDS011;57391;51.306;22.680;2023-04-25T08:45:42;7.40;;;5.10;;
70049;SDS011;57391;51.306;22.680;2023-04-25T08:48:15;7.80;;;4.90;;
70049;SDS011;57391;51.306;22.680;2023-04-25T08:50:51;6.70;;;4.70;;
70049;SDS011;57391;51.306;22.680;2023-04-25T08:53:23;8.50;;;4.70;;
70049;SDS011;57391;51.306;22.680;2023-04-25T08:55:54;6.90;;;5.10;;
70049;SDS011;57391;51.306;22.680;2023-04-25T08:58:23;7.70;;;4.90;;
70049;SDS011;57391;51.306;22.680;2023-04-25T09:00:51;10.50;;;5.00;;
70049;SDS011;57391;51.306;22.680;2023-04-25T09:03:20;8.20;;;5.10;;
70049;SDS011;57391;51.306;22.680;2023-04-25T09:05:49;7.80;;;5.00;;
70049;SDS011;57391;51.306;22.680;2023-04-25T09:08:17;8.40;;;5.10;;
70049;SDS011;57391;51.306;22.680;2023-04-25T09:10:44;8.80;;;5.20;;
70049;SDS011;57391;51.306;22.680;2023-04-25T09:13:13;8.10;;;5.40;;
70049;SDS011;57391;51.306;22.680;2023-04-25T09:16:08;7.90;;;5.50;;
70049;SDS011;57391;51.306;22.680;2023-04-25T09:18:43;7.30;;;5.20;;
70049;SDS011;57391;51.306;22.680;2023-04-25T09:21:11;8.00;;;5.50;;
70049;SDS011;57391;51.306;22.680;2023-04-25T09:23:48;9.10;;;5.30;;
70049;SDS011;57391;51.306;22.680;2023-04-25T09:26:20;7.80;;;5.30;;
70049;SDS011;57391;51.306;22.680;2023-04-25T09:28:48;8.90;;;4.70;;
70049;SDS011;57391;51.306;22.680;2023-04-25T09:31:23;6.60;;;4.40;;
70049;SDS011;57391;51.306;22.680;2023-04-25T09:34:00;7.80;;;5.10;;
70049;SDS011;57391;51.306;22.680;2023-04-25T09:36:29;7.70;;;5.20;;
70049;SDS011;57391;51.306;22.680;2023-04-25T09:39:28;9.00;;;5.60;;
70049;SDS011;57391;51.306;22.680;2023-04-25T09:42:03;7.60;;;5.40;;
70049;SDS011;57391;51.306;22.680;2023-04-25T09:44:32;9.40;;;5.60;;
70049;SDS011;57391;51.306;22.680;2023-04-25T09:46:59;7.10;;;5.20;;
70049;SDS011;57391;51.306;22.680;2023-04-25T09:49:28;8.30;;;5.40;;
70049;SDS011;57391;51.306;22.680;2023-04-25T09:52:06;8.10;;;5.10;;
70049;SDS011;57391;51.306;22.680;2023-04-25T09:54:51;7.30;;;5.60;;
70049;SDS011;57391;51.306;22.680;2023-04-25T09:57:25;7.60;;;5.60;;
70049;SDS011;57391;51.306;22.680;2023-04-25T09:59:55;7.10;;;4.30;;
70049;SDS011;57391;51.306;22.680;2023-04-25T10:02:25;7.00;;;5.10;;
70049;SDS011;57391;51.306;22.680;2023-04-25T10:04:56;8.60;;;5.40;;
70049;SDS011;57391;51.306;22.680;2023-04-25T10:07:29;8.10;;;5.60;;
70049;SDS011;57391;51.306;22.680;2023-04-25T10:10:04;7.40;;;5.10;;
70049;SDS011;57391;51.306;22.680;2023-04-25T10:12:33;8.60;;;5.00;;
70049;SDS011;57391;51.306;22.680;2023-04-25T10:15:02;8.40;;;5.70;;
70049;SDS011;57391;51.306;22.680;2023-04-25T10:17:31;9.70;;;5.70;;
70049;SDS011;57391;51.306;22.680;2023-04-25T10:20:02;7.50;;;5.50;;
70049;SDS011;57391;51.306;22.680;2023-04-25T10:22:40;8.20;;;5.50;;
70049;SDS011;57391;51.306;22.680;2023-04-25T10:25:10;8.60;;;5.30;;
70049;SDS011;57391;51.306;22.680;2023-04-25T10:27:38;8.80;;;5.20;;
70049;SDS011;57391;51.306;22.680;2023-04-25T10:30:08;7.40;;;5.40;;
70049;SDS011;57391;51.306;22.680;2023-04-25T10:32:42;8.40;;;5.40;;
70049;SDS011;57391;51.306;22.680;2023-04-25T10:35:19;8.80;;;5.60;;
70049;SDS011;57391;51.306;22.680;2023-04-25T10:38:05;8.80;;;6.00;;
70049;SDS011;57391;51.306;22.680;2023-04-25T10:40:36;8.50;;;5.50;;
70049;SDS011;57391;51.306;22.680;2023-04-25T10:46:01;9.50;;;5.80;;
70049;SDS011;57391;51.306;22.680;2023-04-25T10:48:30;8.20;;;4.90;;
70049;SDS011;57391;51.306;22.680;2023-04-25T10:51:11;8.40;;;5.80;;
70049;SDS011;57391;51.306;22.680;2023-04-25T10:53:48;9.20;;;6.20;;
70049;SDS011;57391;51.306;22.680;2023-04-25T10:56:38;8.20;;;5.40;;
70049;SDS011;57391;51.306;22.680;2023-04-25T10:59:15;10.60;;;6.00;;
70049;SDS011;57391;51.306;22.680;2023-04-25T11:01:46;7.90;;;5.40;;
70049;SDS011;57391;51.306;22.680;2023-04-25T11:04:34;8.70;;;6.10;;
70049;SDS011;57391;51.306;22.680;2023-04-25T11:07:49;7.60;;;5.30;;
70049;SDS011;57391;51.306;22.680;2023-04-25T11:10:27;8.30;;;6.00;;
70049;SDS011;57391;51.306;22.680;2023-04-25T11:12:56;7.70;;;5.70;;
70049;SDS011;57391;51.306;22.680;2023-04-25T11:15:24;8.50;;;5.50;;
70049;SDS011;57391;51.306;22.680;2023-04-25T11:17:53;8.30;;;5.60;;
70049;SDS011;57391;51.306;22.680;2023-04-25T11:20:21;8.10;;;5.70;;
70049;SDS011;57391;51.306;22.680;2023-04-25T11:22:52;8.00;;;5.50;;
70049;SDS011;57391;51.306;22.680;2023-04-25T11:25:19;8.50;;;6.10;;
70049;SDS011;57391;51.306;22.680;2023-04-25T11:27:50;9.60;;;5.60;;
70049;SDS011;57391;51.306;22.680;2023-04-25T11:30:19;10.60;;;7.20;;
70049;SDS011;57391;51.306;22.680;2023-04-25T11:32:47;8.20;;;6.00;;
70049;SDS011;57391;51.306;22.680;2023-04-25T11:35:15;8.90;;;5.90;;
70049;SDS011;57391;51.306;22.680;2023-04-25T11:37:44;10.20;;;6.50;;
70049;SDS011;57391;51.306;22.680;2023-04-25T11:40:11;8.40;;;5.60;;
70049;SDS011;57391;51.306;22.680;2023-04-25T11:42:42;8.40;;;5.90;;
70049;SDS011;57391;51.306;22.680;2023-04-25T11:45:11;8.50;;;5.30;;
70049;SDS011;57391;51.306;22.680;2023-04-25T11:47:38;8.40;;;5.90;;
70049;SDS011;57391;51.306;22.680;2023-04-25T11:50:07;7.80;;;5.50;;
70049;SDS011;57391;51.306;22.680;2023-04-25T11:52:40;9.00;;;5.90;;
70049;SDS011;57391;51.306;22.680;2023-04-25T11:55:16;9.00;;;5.10;;
70049;SDS011;57391;51.306;22.680;2023-04-25T11:57:47;8.60;;;5.30;;
70049;SDS011;57391;51.306;22.680;2023-04-25T12:00:21;8.80;;;6.10;;
70049;SDS011;57391;51.306;22.680;2023-04-25T12:02:53;9.70;;;6.10;;
70049;SDS011;57391;51.306;22.680;2023-04-25T12:05:26;7.00;;;5.10;;
70049;SDS011;57391;51.306;22.680;2023-04-25T12:07:56;8.30;;;5.70;;
70049;SDS011;57391;51.306;22.680;2023-04-25T12:10:24;9.00;;;5.80;;
70049;SDS011;57391;51.306;22.680;2023-04-25T12:12:52;8.70;;;6.00;;
70049;SDS011;57391;51.306;22.680;2023-04-25T12:15:25;8.90;;;5.90;;
70049;SDS011;57391;51.306;22.680;2023-04-25T12:17:53;8.80;;;6.50;;
70049;SDS011;57391;51.306;22.680;2023-04-25T12:20:25;9.90;;;6.80;;
70049;SDS011;57391;51.306;22.680;2023-04-25T12:22:53;9.10;;;6.50;;
70049;SDS011;57391;51.306;22.680;2023-04-25T12:25:38;10.20;;;6.80;;
70049;SDS011;57391;51.306;22.680;2023-04-25T12:28:16;11.30;;;7.30;;
70049;SDS011;57391;51.306;22.680;2023-04-25T12:31:04;9.20;;;6.00;;
70049;SDS011;57391;51.306;22.680;2023-04-25T12:33:34;10.40;;;6.60;;
70049;SDS011;57391;51.306;22.680;2023-04-25T12:36:04;8.80;;;6.30;;
70049;SDS011;57391;51.306;22.680;2023-04-25T12:38:38;9.70;;;6.30;;
70049;SDS011;57391;51.306;22.680;2023-04-25T12:41:09;5.40;;;3.00;;
70049;SDS011;57391;51.306;22.680;2023-04-25T12:43:37;3.40;;;2.20;;
70049;SDS011;57391;51.306;22.680;2023-04-25T12:46:04;3.70;;;2.20;;
70049;SDS011;57391;51.306;22.680;2023-04-25T12:48:32;4.40;;;2.80;;
70049;SDS011;57391;51.306;22.680;2023-04-25T12:50:59;5.10;;;3.10;;
70049;SDS011;57391;51.306;22.680;2023-04-25T12:53:27;4.40;;;3.10;;
70049;SDS011;57391;51.306;22.680;2023-04-25T12:55:56;5.40;;;3.60;;
70049;SDS011;57391;51.306;22.680;2023-04-25T12:58:23;5.30;;;3.80;;
70049;SDS011;57391;51.306;22.680;2023-04-25T13:00:51;5.70;;;4.00;;
70049;SDS011;57391;51.306;22.680;2023-04-25T13:03:19;6.40;;;4.50;;
70049;SDS011;57391;51.306;22.680;2023-04-25T13:05:47;6.60;;;4.70;;
70049;SDS011;57391;51.306;22.680;2023-04-25T13:08:14;6.00;;;4.60;;
70049;SDS011;57391;51.306;22.680;2023-04-25T13:10:42;6.40;;;4.80;;
70049;SDS011;57391;51.306;22.680;2023-04-25T13:13:09;6.90;;;4.80;;
70049;SDS011;57391;51.306;22.680;2023-04-25T13:15:36;7.30;;;5.00;;
70049;SDS011;57391;51.306;22.680;2023-04-25T13:18:05;8.00;;;5.30;;
70049;SDS011;57391;51.306;22.680;2023-04-25T13:20:32;7.50;;;5.20;;
70049;SDS011;57391;51.306;22.680;2023-04-25T13:23:00;7.40;;;5.20;;
70049;SDS011;57391;51.306;22.680;2023-04-25T13:25:27;8.30;;;5.20;;
70049;SDS011;57391;51.306;22.680;2023-04-25T13:27:55;7.40;;;5.20;;
70049;SDS011;57391;51.306;22.680;2023-04-25T13:30:22;8.00;;;5.40;;
70049;SDS011;57391;51.306;22.680;2023-04-25T13:32:49;8.10;;;5.80;;
70049;SDS011;57391;51.306;22.680;2023-04-25T13:35:16;7.80;;;5.40;;
70049;SDS011;57391;51.306;22.680;2023-04-25T13:37:44;8.50;;;5.50;;
70049;SDS011;57391;51.306;22.680;2023-04-25T13:40:12;7.80;;;5.30;;
70049;SDS011;57391;51.306;22.680;2023-04-25T13:42:39;7.60;;;5.20;;
70049;SDS011;57391;51.306;22.680;2023-04-25T13:45:07;6.30;;;4.70;;
70049;SDS011;57391;51.306;22.680;2023-04-25T13:47:35;7.60;;;5.80;;
70049;SDS011;57391;51.306;22.680;2023-04-25T13:50:03;8.30;;;6.30;;
70049;SDS011;57391;51.306;22.680;2023-04-25T13:52:37;8.10;;;6.00;;
70049;SDS011;57391;51.306;22.680;2023-04-25T13:55:05;8.50;;;6.00;;
70049;SDS011;57391;51.306;22.680;2023-04-25T13:57:35;9.10;;;6.50;;
70049;SDS011;57391;51.306;22.680;2023-04-25T14:00:04;11.20;;;8.20;;
70049;SDS011;57391;51.306;22.680;2023-04-25T14:02:38;9.20;;;6.60;;
70049;SDS011;57391;51.306;22.680;2023-04-25T14:05:06;9.30;;;7.10;;
70049;SDS011;57391;51.306;22.680;2023-04-25T14:07:35;10.90;;;7.50;;
70049;SDS011;57391;51.306;22.680;2023-04-25T14:10:04;10.80;;;7.40;;
70049;SDS011;57391;51.306;22.680;2023-04-25T14:12:32;9.90;;;7.00;;
70049;SDS011;57391;51.306;22.680;2023-04-25T14:15:03;9.50;;;7.60;;
70049;SDS011;57391;51.306;22.680;2023-04-25T14:17:31;10.40;;;7.60;;
70049;SDS011;57391;51.306;22.680;2023-04-25T14:19:58;10.80;;;8.00;;
70049;SDS011;57391;51.306;22.680;2023-04-25T14:22:29;11.20;;;7.80;;
70049;SDS011;57391;51.306;22.680;2023-04-25T14:24:57;13.70;;;8.10;;
70049;SDS011;57391;51.306;22.680;2023-04-25T14:27:25;10.90;;;7.70;;
70049;SDS011;57391;51.306;22.680;2023-04-25T14:29:53;11.00;;;8.50;;
70049;SDS011;57391;51.306;22.680;2023-04-25T14:32:20;11.50;;;8.60;;
70049;SDS011;57391;51.306;22.680;2023-04-25T14:34:47;10.60;;;7.50;;
70049;SDS011;57391;51.306;22.680;2023-04-25T14:37:15;13.00;;;8.10;;
70049;SDS011;57391;51.306;22.680;2023-04-25T14:39:42;14.80;;;9.20;;
70049;SDS011;57391;51.306;22.680;2023-04-25T14:42:10;12.50;;;9.10;;
70049;SDS011;57391;51.306;22.680;2023-04-25T14:44:38;11.90;;;8.30;;
70049;SDS011;57391;51.306;22.680;2023-04-25T14:47:06;12.90;;;9.30;;
70049;SDS011;57391;51.306;22.680;2023-04-25T14:49:33;10.30;;;7.90;;
70049;SDS011;57391;51.306;22.680;2023-04-25T14:52:00;11.40;;;8.10;;